sensor_id;sensor_type;location;lat;lon;timestamp;P1;durP1;ratioP1;P2;durP2;ratioP2
51907;SDS011;39320;53.214;6.556;2022-07-04T00:00:07;4.63;;;2.60;;
51907;SDS011;39320;53.214;6.556;2022-07-04T00:02:34;4.68;;;2.53;;
51907;SDS011;39320;53.214;6.556;2022-07-04T00:05:01;4.38;;;2.75;;
51907;SDS011;39320;53.214;6.556;2022-07-04T00:07:27;5.43;;;2.75;;
51907;SDS011;39320;53.214;6.556;2022-07-04T00:09:52;3.88;;;2.70;;
51907;SDS011;39320;53.214;6.556;2022-07-04T00:12:18;4.28;;;3.10;;
51907;SDS011;39320;53.214;6.556;2022-07-04T00:14:44;4.47;;;2.80;;
51907;SDS011;39320;53.214;6.556;2022-07-04T00:17:10;4.30;;;2.55;;
51907;SDS011;39320;53.214;6.556;2022-07-04T00:19:36;5.38;;;2.45;;
51907;SDS011;39320;53.214;6.556;2022-07-04T00:22:01;5.18;;;3.20;;
51907;SDS011;39320;53.214;6.556;2022-07-04T00:24:27;3.78;;;2.90;;
51907;SDS011;39320;53.214;6.556;2022-07-04T00:26:53;5.90;;;2.85;;
51907;SDS011;39320;53.214;6.556;2022-07-04T00:29:19;4.78;;;3.25;;
51907;SDS011;39320;53.214;6.556;2022-07-04T00:31:45;6.38;;;3.50;;
51907;SDS011;39320;53.214;6.556;2022-07-04T00:34:10;4.47;;;3.05;;
51907;SDS011;39320;53.214;6.556;2022-07-04T00:36:36;6.15;;;3.35;;
51907;SDS011;39320;53.214;6.556;2022-07-04T00:39:02;4.80;;;3.30;;
51907;SDS011;39320;53.214;6.556;2022-07-04T00:41:28;7.25;;;3.20;;
51907;SDS011;39320;53.214;6.556;2022-07-04T00:44:07;5.00;;;3.38;;
51907;SDS011;39320;53.214;6.556;2022-07-04T00:46:34;6.40;;;3.25;;
51907;SDS011;39320;53.214;6.556;2022-07-04T00:49:00;6.75;;;3.03;;
51907;SDS011;39320;53.214;6.556;2022-07-04T00:51:28;5.35;;;3.20;;
51907;SDS011;39320;53.214;6.556;2022-07-04T00:53:54;6.72;;;3.10;;
51907;SDS011;39320;53.214;6.556;2022-07-04T00:56:21;4.57;;;2.88;;
51907;SDS011;39320;53.214;6.556;2022-07-04T00:58:48;5.07;;;3.03;;
51907;SDS011;39320;53.214;6.556;2022-07-04T01:01:15;4.97;;;2.78;;
51907;SDS011;39320;53.214;6.556;2022-07-04T01:03:42;7.38;;;3.90;;
51907;SDS011;39320;53.214;6.556;2022-07-04T01:06:08;4.43;;;2.97;;
51907;SDS011;39320;53.214;6.556;2022-07-04T01:08:37;5.72;;;2.90;;
51907;SDS011;39320;53.214;6.556;2022-07-04T01:11:06;3.60;;;3.03;;
51907;SDS011;39320;53.214;6.556;2022-07-04T01:13:32;5.97;;;3.10;;
51907;SDS011;39320;53.214;6.556;2022-07-04T01:15:58;7.18;;;3.58;;
51907;SDS011;39320;53.214;6.556;2022-07-04T01:18:24;3.65;;;2.88;;
51907;SDS011;39320;53.214;6.556;2022-07-04T01:20:50;6.38;;;2.95;;
51907;SDS011;39320;53.214;6.556;2022-07-04T01:23:15;7.97;;;3.38;;
51907;SDS011;39320;53.214;6.556;2022-07-04T01:25:42;4.40;;;3.03;;
51907;SDS011;39320;53.214;6.556;2022-07-04T01:28:08;4.32;;;2.90;;
51907;SDS011;39320;53.214;6.556;2022-07-04T01:30:34;4.75;;;3.40;;
51907;SDS011;39320;53.214;6.556;2022-07-04T01:33:02;3.88;;;3.17;;
51907;SDS011;39320;53.214;6.556;2022-07-04T01:35:28;3.65;;;2.83;;
51907;SDS011;39320;53.214;6.556;2022-07-04T01:37:54;6.07;;;3.60;;
51907;SDS011;39320;53.214;6.556;2022-07-04T01:40:19;9.02;;;3.90;;
51907;SDS011;39320;53.214;6.556;2022-07-04T01:42:45;4.72;;;3.22;;
51907;SDS011;39320;53.214;6.556;2022-07-04T01:45:11;3.90;;;3.15;;
51907;SDS011;39320;53.214;6.556;2022-07-04T01:47:38;4.93;;;3.40;;
51907;SDS011;39320;53.214;6.556;2022-07-04T01:50:05;5.97;;;3.28;;
51907;SDS011;39320;53.214;6.556;2022-07-04T01:52:33;5.10;;;3.10;;
51907;SDS011;39320;53.214;6.556;2022-07-04T01:54:59;6.25;;;3.78;;
51907;SDS011;39320;53.214;6.556;2022-07-04T01:57:25;7.03;;;3.47;;
51907;SDS011;39320;53.214;6.556;2022-07-04T01:59:50;3.75;;;2.78;;
51907;SDS011;39320;53.214;6.556;2022-07-04T02:02:35;5.30;;;3.25;;
51907;SDS011;39320;53.214;6.556;2022-07-04T02:05:01;5.20;;;3.25;;
51907;SDS011;39320;53.214;6.556;2022-07-04T02:07:28;5.05;;;3.45;;
51907;SDS011;39320;53.214;6.556;2022-07-04T02:09:53;6.20;;;4.10;;
51907;SDS011;39320;53.214;6.556;2022-07-04T02:12:19;5.57;;;3.58;;
51907;SDS011;39320;53.214;6.556;2022-07-04T02:15:04;4.90;;;3.83;;
51907;SDS011;39320;53.214;6.556;2022-07-04T02:17:33;4.30;;;3.17;;
51907;SDS011;39320;53.214;6.556;2022-07-04T02:19:58;7.10;;;3.90;;
51907;SDS011;39320;53.214;6.556;2022-07-04T02:22:24;7.10;;;4.10;;
51907;SDS011;39320;53.214;6.556;2022-07-04T02:24:50;4.53;;;3.97;;
51907;SDS011;39320;53.214;6.556;2022-07-04T02:27:15;5.07;;;3.72;;
51907;SDS011;39320;53.214;6.556;2022-07-04T02:29:41;6.43;;;3.67;;
51907;SDS011;39320;53.214;6.556;2022-07-04T02:32:07;7.22;;;3.92;;
51907;SDS011;39320;53.214;6.556;2022-07-04T02:34:34;6.40;;;4.28;;
51907;SDS011;39320;53.214;6.556;2022-07-04T02:36:59;6.20;;;4.15;;
51907;SDS011;39320;53.214;6.556;2022-07-04T02:39:25;4.68;;;3.90;;
51907;SDS011;39320;53.214;6.556;2022-07-04T02:41:51;8.60;;;4.30;;
51907;SDS011;39320;53.214;6.556;2022-07-04T02:44:16;5.95;;;4.35;;
51907;SDS011;39320;53.214;6.556;2022-07-04T02:46:42;5.97;;;3.78;;
51907;SDS011;39320;53.214;6.556;2022-07-04T02:49:08;6.63;;;4.32;;
51907;SDS011;39320;53.214;6.556;2022-07-04T02:51:34;7.35;;;4.78;;
51907;SDS011;39320;53.214;6.556;2022-07-04T02:54:00;5.20;;;4.70;;
51907;SDS011;39320;53.214;6.556;2022-07-04T02:56:26;11.05;;;6.00;;
51907;SDS011;39320;53.214;6.556;2022-07-04T02:58:51;6.15;;;5.55;;
51907;SDS011;39320;53.214;6.556;2022-07-04T03:01:17;9.55;;;5.95;;
51907;SDS011;39320;53.214;6.556;2022-07-04T03:03:45;7.57;;;5.55;;
51907;SDS011;39320;53.214;6.556;2022-07-04T03:06:11;5.80;;;5.20;;
51907;SDS011;39320;53.214;6.556;2022-07-04T03:08:37;6.95;;;5.93;;
51907;SDS011;39320;53.214;6.556;2022-07-04T03:11:04;7.95;;;5.13;;
51907;SDS011;39320;53.214;6.556;2022-07-04T03:13:30;6.45;;;4.63;;
51907;SDS011;39320;53.214;6.556;2022-07-04T03:15:56;6.63;;;5.53;;
51907;SDS011;39320;53.214;6.556;2022-07-04T03:18:21;8.05;;;6.13;;
51907;SDS011;39320;53.214;6.556;2022-07-04T03:20:47;7.90;;;4.88;;
51907;SDS011;39320;53.214;6.556;2022-07-04T03:23:13;7.95;;;5.53;;
51907;SDS011;39320;53.214;6.556;2022-07-04T03:25:40;7.45;;;5.47;;
51907;SDS011;39320;53.214;6.556;2022-07-04T03:28:07;8.30;;;5.90;;
51907;SDS011;39320;53.214;6.556;2022-07-04T03:30:33;6.32;;;5.68;;
51907;SDS011;39320;53.214;6.556;2022-07-04T03:32:59;5.55;;;4.78;;
51907;SDS011;39320;53.214;6.556;2022-07-04T03:35:25;7.30;;;4.78;;
51907;SDS011;39320;53.214;6.556;2022-07-04T03:37:51;6.40;;;4.63;;
51907;SDS011;39320;53.214;6.556;2022-07-04T03:40:17;5.60;;;4.95;;
51907;SDS011;39320;53.214;6.556;2022-07-04T03:42:44;6.20;;;4.97;;
51907;SDS011;39320;53.214;6.556;2022-07-04T03:45:10;8.02;;;5.40;;
51907;SDS011;39320;53.214;6.556;2022-07-04T03:47:36;5.05;;;4.43;;
51907;SDS011;39320;53.214;6.556;2022-07-04T03:50:01;5.55;;;4.47;;
51907;SDS011;39320;53.214;6.556;2022-07-04T03:52:27;7.50;;;5.10;;
51907;SDS011;39320;53.214;6.556;2022-07-04T03:54:53;10.15;;;5.47;;
51907;SDS011;39320;53.214;6.556;2022-07-04T03:57:19;7.38;;;4.75;;
51907;SDS011;39320;53.214;6.556;2022-07-04T03:59:45;7.38;;;5.00;;
51907;SDS011;39320;53.214;6.556;2022-07-04T04:02:11;7.55;;;5.72;;
51907;SDS011;39320;53.214;6.556;2022-07-04T04:04:36;7.13;;;5.05;;
51907;SDS011;39320;53.214;6.556;2022-07-04T04:07:20;6.65;;;4.97;;
51907;SDS011;39320;53.214;6.556;2022-07-04T04:09:46;9.57;;;5.68;;
51907;SDS011;39320;53.214;6.556;2022-07-04T04:12:12;6.13;;;5.13;;
51907;SDS011;39320;53.214;6.556;2022-07-04T04:14:38;7.97;;;5.15;;
51907;SDS011;39320;53.214;6.556;2022-07-04T04:17:03;6.78;;;4.72;;
51907;SDS011;39320;53.214;6.556;2022-07-04T04:19:29;8.85;;;5.47;;
51907;SDS011;39320;53.214;6.556;2022-07-04T04:21:55;6.60;;;5.45;;
51907;SDS011;39320;53.214;6.556;2022-07-04T04:24:21;6.35;;;5.03;;
51907;SDS011;39320;53.214;6.556;2022-07-04T04:26:46;7.03;;;5.70;;
51907;SDS011;39320;53.214;6.556;2022-07-04T04:29:12;9.38;;;5.38;;
51907;SDS011;39320;53.214;6.556;2022-07-04T04:31:38;9.52;;;5.50;;
51907;SDS011;39320;53.214;6.556;2022-07-04T04:34:03;7.18;;;4.97;;
51907;SDS011;39320;53.214;6.556;2022-07-04T04:36:29;7.57;;;5.13;;
51907;SDS011;39320;53.214;6.556;2022-07-04T04:38:55;8.07;;;5.05;;
51907;SDS011;39320;53.214;6.556;2022-07-04T04:41:21;7.47;;;4.90;;
51907;SDS011;39320;53.214;6.556;2022-07-04T04:43:47;7.70;;;4.65;;
51907;SDS011;39320;53.214;6.556;2022-07-04T04:46:12;6.15;;;4.72;;
51907;SDS011;39320;53.214;6.556;2022-07-04T04:48:38;5.43;;;4.90;;
51907;SDS011;39320;53.214;6.556;2022-07-04T04:51:04;7.43;;;4.90;;
51907;SDS011;39320;53.214;6.556;2022-07-04T04:53:30;8.18;;;5.25;;
51907;SDS011;39320;53.214;6.556;2022-07-04T04:55:56;5.40;;;4.07;;
51907;SDS011;39320;53.214;6.556;2022-07-04T04:58:22;5.85;;;5.13;;
51907;SDS011;39320;53.214;6.556;2022-07-04T05:00:48;7.60;;;4.53;;
51907;SDS011;39320;53.214;6.556;2022-07-04T05:03:15;10.07;;;5.03;;
51907;SDS011;39320;53.214;6.556;2022-07-04T05:05:41;7.35;;;4.60;;
51907;SDS011;39320;53.214;6.556;2022-07-04T05:08:08;5.53;;;4.55;;
51907;SDS011;39320;53.214;6.556;2022-07-04T05:10:33;8.93;;;4.95;;
51907;SDS011;39320;53.214;6.556;2022-07-04T05:12:59;5.93;;;4.85;;
51907;SDS011;39320;53.214;6.556;2022-07-04T05:15:25;7.05;;;4.97;;
51907;SDS011;39320;53.214;6.556;2022-07-04T05:17:51;7.45;;;4.50;;
51907;SDS011;39320;53.214;6.556;2022-07-04T05:20:17;7.53;;;4.97;;
51907;SDS011;39320;53.214;6.556;2022-07-04T05:22:43;6.75;;;4.85;;
51907;SDS011;39320;53.214;6.556;2022-07-04T05:25:09;9.35;;;5.15;;
51907;SDS011;39320;53.214;6.556;2022-07-04T05:27:35;9.15;;;4.93;;
51907;SDS011;39320;53.214;6.556;2022-07-04T05:30:02;7.38;;;5.03;;
51907;SDS011;39320;53.214;6.556;2022-07-04T05:32:28;7.38;;;4.90;;
51907;SDS011;39320;53.214;6.556;2022-07-04T05:34:54;7.60;;;4.85;;
51907;SDS011;39320;53.214;6.556;2022-07-04T05:37:20;7.57;;;5.55;;
51907;SDS011;39320;53.214;6.556;2022-07-04T05:39:46;7.60;;;5.28;;
51907;SDS011;39320;53.214;6.556;2022-07-04T05:42:12;6.93;;;5.40;;
51907;SDS011;39320;53.214;6.556;2022-07-04T05:44:37;8.80;;;5.47;;
51907;SDS011;39320;53.214;6.556;2022-07-04T05:47:03;7.82;;;5.82;;
51907;SDS011;39320;53.214;6.556;2022-07-04T05:49:29;10.02;;;5.38;;
51907;SDS011;39320;53.214;6.556;2022-07-04T05:51:54;9.10;;;5.75;;
51907;SDS011;39320;53.214;6.556;2022-07-04T05:54:20;11.63;;;5.82;;
51907;SDS011;39320;53.214;6.556;2022-07-04T05:56:46;8.15;;;5.30;;
51907;SDS011;39320;53.214;6.556;2022-07-04T05:59:12;7.57;;;5.13;;
51907;SDS011;39320;53.214;6.556;2022-07-04T06:01:37;6.95;;;5.53;;
51907;SDS011;39320;53.214;6.556;2022-07-04T06:04:04;12.20;;;6.07;;
51907;SDS011;39320;53.214;6.556;2022-07-04T06:06:30;7.43;;;5.65;;
51907;SDS011;39320;53.214;6.556;2022-07-04T06:08:57;9.75;;;5.28;;
51907;SDS011;39320;53.214;6.556;2022-07-04T06:11:23;9.95;;;5.63;;
51907;SDS011;39320;53.214;6.556;2022-07-04T06:13:49;8.30;;;5.53;;
51907;SDS011;39320;53.214;6.556;2022-07-04T06:16:15;8.15;;;5.55;;
51907;SDS011;39320;53.214;6.556;2022-07-04T06:18:42;6.93;;;5.00;;
51907;SDS011;39320;53.214;6.556;2022-07-04T06:21:08;8.35;;;4.88;;
51907;SDS011;39320;53.214;6.556;2022-07-04T06:23:35;10.10;;;5.20;;
51907;SDS011;39320;53.214;6.556;2022-07-04T06:26:00;9.35;;;4.90;;
51907;SDS011;39320;53.214;6.556;2022-07-04T06:28:27;7.93;;;5.10;;
51907;SDS011;39320;53.214;6.556;2022-07-04T06:30:53;8.35;;;5.13;;
51907;SDS011;39320;53.214;6.556;2022-07-04T06:33:19;8.95;;;4.50;;
51907;SDS011;39320;53.214;6.556;2022-07-04T06:35:44;5.90;;;3.88;;
51907;SDS011;39320;53.214;6.556;2022-07-04T06:38:24;7.13;;;3.50;;
51907;SDS011;39320;53.214;6.556;2022-07-04T06:40:55;7.22;;;3.67;;
51907;SDS011;39320;53.214;6.556;2022-07-04T06:43:22;5.43;;;3.55;;
51907;SDS011;39320;53.214;6.556;2022-07-04T06:45:49;5.55;;;3.97;;
51907;SDS011;39320;53.214;6.556;2022-07-04T06:48:16;8.70;;;3.83;;
51907;SDS011;39320;53.214;6.556;2022-07-04T06:50:41;10.57;;;4.55;;
51907;SDS011;39320;53.214;6.556;2022-07-04T06:53:08;6.95;;;3.22;;
51907;SDS011;39320;53.214;6.556;2022-07-04T06:55:35;6.43;;;3.28;;
51907;SDS011;39320;53.214;6.556;2022-07-04T06:58:05;6.30;;;3.78;;
51907;SDS011;39320;53.214;6.556;2022-07-04T07:00:32;8.43;;;4.38;;
51907;SDS011;39320;53.214;6.556;2022-07-04T07:02:58;8.18;;;3.85;;
51907;SDS011;39320;53.214;6.556;2022-07-04T07:05:25;7.38;;;3.60;;
51907;SDS011;39320;53.214;6.556;2022-07-04T07:07:52;9.00;;;4.03;;
51907;SDS011;39320;53.214;6.556;2022-07-04T07:10:18;9.15;;;4.75;;
51907;SDS011;39320;53.214;6.556;2022-07-04T07:12:44;7.68;;;3.80;;
51907;SDS011;39320;53.214;6.556;2022-07-04T07:15:10;6.40;;;3.97;;
51907;SDS011;39320;53.214;6.556;2022-07-04T07:17:36;6.90;;;4.15;;
51907;SDS011;39320;53.214;6.556;2022-07-04T07:20:02;8.02;;;4.18;;
51907;SDS011;39320;53.214;6.556;2022-07-04T07:22:28;7.57;;;4.13;;
51907;SDS011;39320;53.214;6.556;2022-07-04T07:24:54;6.43;;;3.72;;
51907;SDS011;39320;53.214;6.556;2022-07-04T07:27:20;6.65;;;3.70;;
51907;SDS011;39320;53.214;6.556;2022-07-04T07:29:46;6.95;;;3.55;;
51907;SDS011;39320;53.214;6.556;2022-07-04T07:32:12;4.88;;;2.83;;
51907;SDS011;39320;53.214;6.556;2022-07-04T07:34:38;4.10;;;2.78;;
51907;SDS011;39320;53.214;6.556;2022-07-04T07:37:04;5.43;;;2.92;;
51907;SDS011;39320;53.214;6.556;2022-07-04T07:39:29;5.15;;;2.78;;
51907;SDS011;39320;53.214;6.556;2022-07-04T07:41:55;6.93;;;3.70;;
51907;SDS011;39320;53.214;6.556;2022-07-04T07:44:21;6.80;;;3.50;;
51907;SDS011;39320;53.214;6.556;2022-07-04T07:46:47;6.95;;;3.28;;
51907;SDS011;39320;53.214;6.556;2022-07-04T07:49:12;6.70;;;4.10;;
51907;SDS011;39320;53.214;6.556;2022-07-04T07:51:38;8.88;;;3.50;;
51907;SDS011;39320;53.214;6.556;2022-07-04T07:54:04;4.40;;;3.03;;
51907;SDS011;39320;53.214;6.556;2022-07-04T07:56:29;5.43;;;3.17;;
51907;SDS011;39320;53.214;6.556;2022-07-04T07:58:55;8.40;;;3.40;;
51907;SDS011;39320;53.214;6.556;2022-07-04T08:01:21;7.28;;;3.30;;
51907;SDS011;39320;53.214;6.556;2022-07-04T08:03:47;5.20;;;3.40;;
51907;SDS011;39320;53.214;6.556;2022-07-04T08:06:32;5.68;;;3.00;;
51907;SDS011;39320;53.214;6.556;2022-07-04T08:08:58;7.43;;;3.08;;
51907;SDS011;39320;53.214;6.556;2022-07-04T08:11:24;5.55;;;3.00;;
51907;SDS011;39320;53.214;6.556;2022-07-04T08:13:50;6.20;;;3.20;;
51907;SDS011;39320;53.214;6.556;2022-07-04T08:16:17;5.78;;;3.28;;
51907;SDS011;39320;53.214;6.556;2022-07-04T08:18:42;6.43;;;3.67;;
51907;SDS011;39320;53.214;6.556;2022-07-04T08:21:08;9.07;;;3.53;;
51907;SDS011;39320;53.214;6.556;2022-07-04T08:23:35;3.83;;;3.22;;
51907;SDS011;39320;53.214;6.556;2022-07-04T08:26:01;5.88;;;3.65;;
51907;SDS011;39320;53.214;6.556;2022-07-04T08:28:28;10.52;;;4.53;;
51907;SDS011;39320;53.214;6.556;2022-07-04T08:30:54;7.45;;;4.00;;
51907;SDS011;39320;53.214;6.556;2022-07-04T08:33:21;7.00;;;3.55;;
51907;SDS011;39320;53.214;6.556;2022-07-04T08:35:48;6.05;;;3.08;;
51907;SDS011;39320;53.214;6.556;2022-07-04T08:38:13;5.72;;;3.05;;
51907;SDS011;39320;53.214;6.556;2022-07-04T08:40:41;6.85;;;3.15;;
51907;SDS011;39320;53.214;6.556;2022-07-04T08:43:07;5.25;;;2.58;;
51907;SDS011;39320;53.214;6.556;2022-07-04T08:45:39;5.10;;;2.33;;
51907;SDS011;39320;53.214;6.556;2022-07-04T08:48:06;6.57;;;2.53;;
51907;SDS011;39320;53.214;6.556;2022-07-04T08:50:37;7.85;;;2.40;;
51907;SDS011;39320;53.214;6.556;2022-07-04T08:53:09;2.85;;;1.83;;
51907;SDS011;39320;53.214;6.556;2022-07-04T08:55:39;3.35;;;2.22;;
51907;SDS011;39320;53.214;6.556;2022-07-04T08:58:24;5.93;;;1.88;;
51907;SDS011;39320;53.214;6.556;2022-07-04T09:01:03;4.65;;;1.88;;
51907;SDS011;39320;53.214;6.556;2022-07-04T09:03:32;2.45;;;1.40;;
51907;SDS011;39320;53.214;6.556;2022-07-04T09:05:59;3.10;;;1.30;;
51907;SDS011;39320;53.214;6.556;2022-07-04T09:08:26;3.95;;;1.23;;
51907;SDS011;39320;53.214;6.556;2022-07-04T09:10:52;5.28;;;2.05;;
51907;SDS011;39320;53.214;6.556;2022-07-04T09:13:19;2.40;;;1.38;;
51907;SDS011;39320;53.214;6.556;2022-07-04T09:15:46;1.48;;;1.20;;
51907;SDS011;39320;53.214;6.556;2022-07-04T09:18:23;2.75;;;1.48;;
51907;SDS011;39320;53.214;6.556;2022-07-04T09:20:53;4.72;;;1.45;;
51907;SDS011;39320;53.214;6.556;2022-07-04T09:23:24;2.53;;;1.30;;
51907;SDS011;39320;53.214;6.556;2022-07-04T09:28:44;2.00;;;1.25;;
51907;SDS011;39320;53.214;6.556;2022-07-04T09:31:22;1.83;;;0.90;;
51907;SDS011;39320;53.214;6.556;2022-07-04T09:33:51;3.35;;;1.30;;
51907;SDS011;39320;53.214;6.556;2022-07-04T09:36:19;2.67;;;1.38;;
51907;SDS011;39320;53.214;6.556;2022-07-04T09:39:03;3.35;;;1.40;;
51907;SDS011;39320;53.214;6.556;2022-07-04T09:41:29;2.17;;;1.30;;
51907;SDS011;39320;53.214;6.556;2022-07-04T09:44:00;3.05;;;1.27;;
51907;SDS011;39320;53.214;6.556;2022-07-04T09:46:28;2.50;;;1.38;;
51907;SDS011;39320;53.214;6.556;2022-07-04T09:48:54;3.13;;;1.30;;
51907;SDS011;39320;53.214;6.556;2022-07-04T09:51:36;4.50;;;1.35;;
51907;SDS011;39320;53.214;6.556;2022-07-04T09:54:12;2.72;;;1.30;;
51907;SDS011;39320;53.214;6.556;2022-07-04T09:56:41;3.38;;;1.67;;
51907;SDS011;39320;53.214;6.556;2022-07-04T09:59:08;2.85;;;1.30;;
51907;SDS011;39320;53.214;6.556;2022-07-04T10:01:34;3.28;;;1.40;;
51907;SDS011;39320;53.214;6.556;2022-07-04T10:04:01;2.90;;;1.20;;
51907;SDS011;39320;53.214;6.556;2022-07-04T10:06:32;2.92;;;1.52;;
51907;SDS011;39320;53.214;6.556;2022-07-04T10:09:14;1.80;;;1.30;;
51907;SDS011;39320;53.214;6.556;2022-07-04T10:11:43;2.08;;;1.48;;
51907;SDS011;39320;53.214;6.556;2022-07-04T10:14:11;4.25;;;1.60;;
51907;SDS011;39320;53.214;6.556;2022-07-04T10:16:38;3.78;;;1.48;;
51907;SDS011;39320;53.214;6.556;2022-07-04T10:19:06;4.20;;;1.33;;
51907;SDS011;39320;53.214;6.556;2022-07-04T10:21:33;4.50;;;1.60;;
51907;SDS011;39320;53.214;6.556;2022-07-04T10:23:59;3.80;;;1.70;;
51907;SDS011;39320;53.214;6.556;2022-07-04T10:26:28;2.60;;;1.20;;
51907;SDS011;39320;53.214;6.556;2022-07-04T10:28:54;2.80;;;1.40;;
51907;SDS011;39320;53.214;6.556;2022-07-04T10:31:21;4.50;;;1.42;;
51907;SDS011;39320;53.214;6.556;2022-07-04T10:33:49;3.17;;;1.20;;
51907;SDS011;39320;53.214;6.556;2022-07-04T10:36:24;3.08;;;1.40;;
51907;SDS011;39320;53.214;6.556;2022-07-04T10:39:01;3.92;;;1.60;;
51907;SDS011;39320;53.214;6.556;2022-07-04T10:41:29;3.23;;;1.50;;
51907;SDS011;39320;53.214;6.556;2022-07-04T10:44:00;2.75;;;1.52;;
51907;SDS011;39320;53.214;6.556;2022-07-04T10:46:38;2.42;;;1.60;;
51907;SDS011;39320;53.214;6.556;2022-07-04T10:51:44;3.17;;;1.50;;
51907;SDS011;39320;53.214;6.556;2022-07-04T10:54:13;1.25;;;0.85;;
51907;SDS011;39320;53.214;6.556;2022-07-04T10:59:36;1.52;;;0.98;;
51907;SDS011;39320;53.214;6.556;2022-07-04T11:04:45;2.92;;;1.42;;
51907;SDS011;39320;53.214;6.556;2022-07-04T11:17:57;2.95;;;1.25;;
51907;SDS011;39320;53.214;6.556;2022-07-04T11:20:38;2.63;;;1.50;;
51907;SDS011;39320;53.214;6.556;2022-07-04T11:23:12;2.58;;;1.00;;
51907;SDS011;39320;53.214;6.556;2022-07-04T11:25:40;2.35;;;1.10;;
51907;SDS011;39320;53.214;6.556;2022-07-04T11:28:18;5.50;;;1.30;;
51907;SDS011;39320;53.214;6.556;2022-07-04T11:30:57;3.83;;;1.10;;
51907;SDS011;39320;53.214;6.556;2022-07-04T11:33:26;3.13;;;1.13;;
51907;SDS011;39320;53.214;6.556;2022-07-04T11:38:45;4.20;;;1.15;;
51907;SDS011;39320;53.214;6.556;2022-07-04T11:41:16;3.10;;;1.30;;
51907;SDS011;39320;53.214;6.556;2022-07-04T11:44:02;2.42;;;1.00;;
51907;SDS011;39320;53.214;6.556;2022-07-04T11:46:48;2.80;;;0.95;;
51907;SDS011;39320;53.214;6.556;2022-07-04T11:49:14;2.47;;;0.88;;
51907;SDS011;39320;53.214;6.556;2022-07-04T11:51:44;1.92;;;0.80;;
51907;SDS011;39320;53.214;6.556;2022-07-04T11:54:11;3.38;;;1.05;;
51907;SDS011;39320;53.214;6.556;2022-07-04T11:56:37;3.20;;;1.23;;
51907;SDS011;39320;53.214;6.556;2022-07-04T11:59:13;2.97;;;1.58;;
51907;SDS011;39320;53.214;6.556;2022-07-04T12:01:40;4.35;;;1.13;;
51907;SDS011;39320;53.214;6.556;2022-07-04T12:04:14;2.55;;;0.93;;
51907;SDS011;39320;53.214;6.556;2022-07-04T12:06:42;2.58;;;0.98;;
51907;SDS011;39320;53.214;6.556;2022-07-04T12:09:08;2.33;;;0.90;;
51907;SDS011;39320;53.214;6.556;2022-07-04T12:14:23;2.67;;;1.17;;
51907;SDS011;39320;53.214;6.556;2022-07-04T12:16:49;2.40;;;1.30;;
51907;SDS011;39320;53.214;6.556;2022-07-04T12:19:20;2.13;;;0.88;;
51907;SDS011;39320;53.214;6.556;2022-07-04T12:21:46;2.22;;;0.82;;
51907;SDS011;39320;53.214;6.556;2022-07-04T12:24:12;3.22;;;1.30;;
51907;SDS011;39320;53.214;6.556;2022-07-04T12:26:48;3.33;;;0.95;;
51907;SDS011;39320;53.214;6.556;2022-07-04T12:29:21;2.75;;;1.02;;
51907;SDS011;39320;53.214;6.556;2022-07-04T12:31:50;3.10;;;1.05;;
51907;SDS011;39320;53.214;6.556;2022-07-04T12:34:18;4.15;;;1.10;;
51907;SDS011;39320;53.214;6.556;2022-07-04T12:36:47;3.03;;;1.40;;
51907;SDS011;39320;53.214;6.556;2022-07-04T12:39:37;2.95;;;0.95;;
51907;SDS011;39320;53.214;6.556;2022-07-04T12:44:33;3.00;;;1.20;;
51907;SDS011;39320;53.214;6.556;2022-07-04T12:46:59;5.65;;;1.27;;
51907;SDS011;39320;53.214;6.556;2022-07-04T12:49:26;2.78;;;1.20;;
51907;SDS011;39320;53.214;6.556;2022-07-04T12:52:02;3.72;;;1.20;;
51907;SDS011;39320;53.214;6.556;2022-07-04T12:54:33;3.60;;;1.30;;
51907;SDS011;39320;53.214;6.556;2022-07-04T12:57:03;2.13;;;1.40;;
51907;SDS011;39320;53.214;6.556;2022-07-04T12:59:31;3.35;;;1.15;;
51907;SDS011;39320;53.214;6.556;2022-07-04T13:01:56;3.00;;;1.00;;
51907;SDS011;39320;53.214;6.556;2022-07-04T13:04:22;3.05;;;0.90;;
51907;SDS011;39320;53.214;6.556;2022-07-04T13:06:48;2.58;;;1.00;;
51907;SDS011;39320;53.214;6.556;2022-07-04T13:09:14;2.78;;;1.13;;
51907;SDS011;39320;53.214;6.556;2022-07-04T13:11:39;2.40;;;1.10;;
51907;SDS011;39320;53.214;6.556;2022-07-04T13:14:23;2.90;;;0.90;;
51907;SDS011;39320;53.214;6.556;2022-07-04T13:16:49;4.53;;;1.23;;
51907;SDS011;39320;53.214;6.556;2022-07-04T13:19:15;4.05;;;1.08;;
51907;SDS011;39320;53.214;6.556;2022-07-04T13:21:44;5.55;;;1.45;;
51907;SDS011;39320;53.214;6.556;2022-07-04T13:24:11;1.20;;;0.80;;
51907;SDS011;39320;53.214;6.556;2022-07-04T13:26:38;2.38;;;0.82;;
51907;SDS011;39320;53.214;6.556;2022-07-04T13:29:05;2.38;;;0.93;;
51907;SDS011;39320;53.214;6.556;2022-07-04T13:31:30;1.85;;;0.98;;
51907;SDS011;39320;53.214;6.556;2022-07-04T13:33:56;3.05;;;0.80;;
51907;SDS011;39320;53.214;6.556;2022-07-04T13:36:22;1.98;;;0.70;;
51907;SDS011;39320;53.214;6.556;2022-07-04T13:38:47;3.95;;;0.80;;
51907;SDS011;39320;53.214;6.556;2022-07-04T13:41:13;2.22;;;0.60;;
51907;SDS011;39320;53.214;6.556;2022-07-04T13:43:40;1.92;;;0.65;;
51907;SDS011;39320;53.214;6.556;2022-07-04T13:46:06;1.73;;;0.65;;
51907;SDS011;39320;53.214;6.556;2022-07-04T13:48:32;1.40;;;0.70;;
51907;SDS011;39320;53.214;6.556;2022-07-04T13:50:58;2.42;;;0.98;;
51907;SDS011;39320;53.214;6.556;2022-07-04T13:53:23;2.30;;;1.00;;
51907;SDS011;39320;53.214;6.556;2022-07-04T13:55:49;2.85;;;0.90;;
51907;SDS011;39320;53.214;6.556;2022-07-04T13:58:15;3.30;;;0.77;;
51907;SDS011;39320;53.214;6.556;2022-07-04T14:00:41;1.92;;;0.70;;
51907;SDS011;39320;53.214;6.556;2022-07-04T14:03:10;1.33;;;0.80;;
51907;SDS011;39320;53.214;6.556;2022-07-04T14:05:36;1.77;;;0.75;;
51907;SDS011;39320;53.214;6.556;2022-07-04T14:08:02;2.83;;;0.77;;
51907;SDS011;39320;53.214;6.556;2022-07-04T14:10:28;2.30;;;0.63;;
51907;SDS011;39320;53.214;6.556;2022-07-04T14:12:54;3.63;;;0.95;;
51907;SDS011;39320;53.214;6.556;2022-07-04T14:15:20;2.35;;;0.60;;
51907;SDS011;39320;53.214;6.556;2022-07-04T14:17:45;1.85;;;0.80;;
51907;SDS011;39320;53.214;6.556;2022-07-04T14:20:11;2.47;;;0.70;;
51907;SDS011;39320;53.214;6.556;2022-07-04T14:22:38;1.70;;;0.73;;
51907;SDS011;39320;53.214;6.556;2022-07-04T14:25:04;2.65;;;0.75;;
51907;SDS011;39320;53.214;6.556;2022-07-04T14:27:31;3.28;;;1.02;;
51907;SDS011;39320;53.214;6.556;2022-07-04T14:29:58;2.65;;;0.60;;
51907;SDS011;39320;53.214;6.556;2022-07-04T14:32:24;1.48;;;0.57;;
51907;SDS011;39320;53.214;6.556;2022-07-04T14:34:50;1.38;;;0.77;;
51907;SDS011;39320;53.214;6.556;2022-07-04T14:37:16;2.80;;;0.80;;
51907;SDS011;39320;53.214;6.556;2022-07-04T14:39:42;1.50;;;0.70;;
51907;SDS011;39320;53.214;6.556;2022-07-04T14:42:08;6.28;;;1.10;;
51907;SDS011;39320;53.214;6.556;2022-07-04T14:44:33;2.47;;;0.70;;
51907;SDS011;39320;53.214;6.556;2022-07-04T14:47:03;0.93;;;0.40;;
51907;SDS011;39320;53.214;6.556;2022-07-04T14:49:29;1.95;;;0.65;;
51907;SDS011;39320;53.214;6.556;2022-07-04T14:51:55;1.55;;;0.70;;
51907;SDS011;39320;53.214;6.556;2022-07-04T14:54:23;3.45;;;0.70;;
51907;SDS011;39320;53.214;6.556;2022-07-04T14:56:49;2.05;;;0.88;;
51907;SDS011;39320;53.214;6.556;2022-07-04T14:59:15;4.13;;;0.80;;
51907;SDS011;39320;53.214;6.556;2022-07-04T15:01:41;2.05;;;0.73;;
51907;SDS011;39320;53.214;6.556;2022-07-04T15:04:07;3.00;;;1.00;;
51907;SDS011;39320;53.214;6.556;2022-07-04T15:06:33;3.22;;;0.85;;
51907;SDS011;39320;53.214;6.556;2022-07-04T15:08:58;2.10;;;0.40;;
51907;SDS011;39320;53.214;6.556;2022-07-04T15:11:24;1.35;;;0.50;;
51907;SDS011;39320;53.214;6.556;2022-07-04T15:13:50;2.10;;;0.57;;
51907;SDS011;39320;53.214;6.556;2022-07-04T15:16:16;1.90;;;0.60;;
51907;SDS011;39320;53.214;6.556;2022-07-04T15:18:42;2.78;;;0.95;;